sensor_id;sensor_type;location;lat;lon;timestamp;pressure;altitude;pressure_sealevel;temperature;humidity
4410;BME280;2218;51.408;7.208;2022-11-03T00:00:57;99804.06;;;20.58;41.45
4410;BME280;2218;51.408;7.208;2022-11-03T00:03:26;99803.22;;;20.57;41.61
4410;BME280;2218;51.408;7.208;2022-11-03T00:05:53;99799.75;;;20.57;41.50
4410;BME280;2218;51.408;7.208;2022-11-03T00:08:38;99803.34;;;20.56;41.63
4410;BME280;2218;51.408;7.208;2022-11-03T00:11:09;99805.03;;;20.57;41.78
4410;BME280;2218;51.408;7.208;2022-11-03T00:13:39;99800.69;;;20.56;41.50
4410;BME280;2218;51.408;7.208;2022-11-03T00:16:09;99801.66;;;20.55;41.43
4410;BME280;2218;51.408;7.208;2022-11-03T00:18:38;99794.72;;;20.54;41.58
4410;BME280;2218;51.408;7.208;2022-11-03T00:21:07;99799.03;;;20.55;41.42
4410;BME280;2218;51.408;7.208;2022-11-03T00:23:37;99795.53;;;20.54;41.59
4410;BME280;2218;51.408;7.208;2022-11-03T00:26:08;99794.72;;;20.54;41.71
4410;BME280;2218;51.408;7.208;2022-11-03T00:28:36;99799.13;;;20.53;41.68
4410;BME280;2218;51.408;7.208;2022-11-03T00:31:07;99796.59;;;20.52;41.76
4410;BME280;2218;51.408;7.208;2022-11-03T00:33:35;99791.31;;;20.52;41.39
4410;BME280;2218;51.408;7.208;2022-11-03T00:36:06;99793.13;;;20.51;41.69
4410;BME280;2218;51.408;7.208;2022-11-03T00:38:34;99798.41;;;20.51;41.25
4410;BME280;2218;51.408;7.208;2022-11-03T00:41:04;99783.53;;;20.50;41.48
4410;BME280;2218;51.408;7.208;2022-11-03T00:43:33;99789.63;;;20.51;41.71
4410;BME280;2218;51.408;7.208;2022-11-03T00:46:01;99787.97;;;20.50;41.63
4410;BME280;2218;51.408;7.208;2022-11-03T00:48:29;99784.34;;;20.51;41.69
4410;BME280;2218;51.408;7.208;2022-11-03T00:51:07;99784.47;;;20.49;41.62
4410;BME280;2218;51.408;7.208;2022-11-03T00:53:36;99782.69;;;20.50;41.33
4410;BME280;2218;51.408;7.208;2022-11-03T00:56:05;99787.97;;;20.50;41.59
4410;BME280;2218;51.408;7.208;2022-11-03T00:58:32;99775.72;;;20.49;41.72
4410;BME280;2218;51.408;7.208;2022-11-03T01:01:02;99775.72;;;20.49;41.89
4410;BME280;2218;51.408;7.208;2022-11-03T01:03:32;99774.84;;;20.48;41.55
4410;BME280;2218;51.408;7.208;2022-11-03T01:06:00;99765.25;;;20.47;41.86
4410;BME280;2218;51.408;7.208;2022-11-03T01:08:46;99778.44;;;20.47;41.62
4410;BME280;2218;51.408;7.208;2022-11-03T01:11:16;99773.16;;;20.47;41.80
4410;BME280;2218;51.408;7.208;2022-11-03T01:14:01;99767.06;;;20.47;41.79
4410;BME280;2218;51.408;7.208;2022-11-03T01:16:29;99761.88;;;20.45;41.67
4410;BME280;2218;51.408;7.208;2022-11-03T01:18:56;99761.88;;;20.45;41.85
4410;BME280;2218;51.408;7.208;2022-11-03T01:21:23;99759.22;;;20.45;41.82
4410;BME280;2218;51.408;7.208;2022-11-03T01:23:52;99754.91;;;20.44;41.72
4410;BME280;2218;51.408;7.208;2022-11-03T01:26:19;99758.38;;;20.45;41.91
4410;BME280;2218;51.408;7.208;2022-11-03T01:28:47;99755.75;;;20.45;41.93
4410;BME280;2218;51.408;7.208;2022-11-03T01:31:16;99749.63;;;20.44;41.70
4410;BME280;2218;51.408;7.208;2022-11-03T01:33:45;99754.03;;;20.44;41.90
4410;BME280;2218;51.408;7.208;2022-11-03T01:36:14;99750.56;;;20.43;41.98
4410;BME280;2218;51.408;7.208;2022-11-03T01:38:41;99744.44;;;20.43;42.02
4410;BME280;2218;51.408;7.208;2022-11-03T01:41:14;99743.59;;;20.42;41.94
4410;BME280;2218;51.408;7.208;2022-11-03T01:43:42;99732.19;;;20.42;42.09
4410;BME280;2218;51.408;7.208;2022-11-03T01:46:17;99730.53;;;20.40;41.78
4410;BME280;2218;51.408;7.208;2022-11-03T01:48:50;99730.53;;;20.40;41.85
4410;BME280;2218;51.408;7.208;2022-11-03T01:51:26;99732.19;;;20.42;42.10
4410;BME280;2218;51.408;7.208;2022-11-03T01:53:59;99722.59;;;20.40;42.04
4410;BME280;2218;51.408;7.208;2022-11-03T01:56:34;99723.56;;;20.39;42.15
4410;BME280;2218;51.408;7.208;2022-11-03T01:59:03;99715.66;;;20.39;42.21
4410;BME280;2218;51.408;7.208;2022-11-03T02:01:31;99713.00;;;20.39;42.13
4410;BME280;2218;51.408;7.208;2022-11-03T02:04:09;99705.09;;;20.39;42.01
4410;BME280;2218;51.408;7.208;2022-11-03T02:06:37;99706.03;;;20.38;42.28
4410;BME280;2218;51.408;7.208;2022-11-03T02:09:06;99704.25;;;20.39;42.20
4410;BME280;2218;51.408;7.208;2022-11-03T02:11:37;99700.75;;;20.38;42.16
4410;BME280;2218;51.408;7.208;2022-11-03T02:14:21;99693.78;;;20.37;42.22
4410;BME280;2218;51.408;7.208;2022-11-03T02:16:53;99693.78;;;20.37;42.12
4410;BME280;2218;51.408;7.208;2022-11-03T02:19:35;99681.53;;;20.36;42.17
4410;BME280;2218;51.408;7.208;2022-11-03T02:22:27;99677.09;;;20.37;42.33
4410;BME280;2218;51.408;7.208;2022-11-03T02:25:10;99671.94;;;20.35;42.40
4410;BME280;2218;51.408;7.208;2022-11-03T02:27:41;99669.31;;;20.35;42.22
4410;BME280;2218;51.408;7.208;2022-11-03T02:30:09;99668.34;;;20.36;42.31
4410;BME280;2218;51.408;7.208;2022-11-03T02:32:47;99663.06;;;20.36;42.38
4410;BME280;2218;51.408;7.208;2022-11-03T02:35:26;99657.06;;;20.34;42.29
4410;BME280;2218;51.408;7.208;2022-11-03T02:37:58;99652.72;;;20.33;42.48
4410;BME280;2218;51.408;7.208;2022-11-03T02:40:32;99647.44;;;20.33;42.28
4410;BME280;2218;51.408;7.208;2022-11-03T02:43:02;99640.41;;;20.34;42.47
4410;BME280;2218;51.408;7.208;2022-11-03T02:45:31;99641.34;;;20.33;42.52
4410;BME280;2218;51.408;7.208;2022-11-03T02:48:00;99634.25;;;20.33;42.62
4410;BME280;2218;51.408;7.208;2022-11-03T02:50:32;99628.97;;;20.33;42.44
4410;BME280;2218;51.408;7.208;2022-11-03T02:52:59;99629.94;;;20.32;42.63
4410;BME280;2218;51.408;7.208;2022-11-03T02:55:35;99628.97;;;20.33;42.57
4410;BME280;2218;51.408;7.208;2022-11-03T02:58:16;99619.38;;;20.32;42.18
4410;BME280;2218;51.408;7.208;2022-11-03T03:00:51;99616.88;;;20.31;42.63
4410;BME280;2218;51.408;7.208;2022-11-03T03:03:24;99615.06;;;20.31;42.62
4410;BME280;2218;51.408;7.208;2022-11-03T03:06:04;99613.28;;;20.32;42.70
4410;BME280;2218;51.408;7.208;2022-11-03T03:08:37;99609.78;;;20.31;42.56
4410;BME280;2218;51.408;7.208;2022-11-03T03:11:10;99607.28;;;20.30;42.76
4410;BME280;2218;51.408;7.208;2022-11-03T03:13:40;99598.41;;;20.31;42.77
4410;BME280;2218;51.408;7.208;2022-11-03T03:16:15;99593.25;;;20.29;42.55
4410;BME280;2218;51.408;7.208;2022-11-03T03:18:48;99592.41;;;20.29;42.76
4410;BME280;2218;51.408;7.208;2022-11-03T03:21:21;99593.25;;;20.29;42.76
4410;BME280;2218;51.408;7.208;2022-11-03T03:23:57;99589.78;;;20.29;42.65
4410;BME280;2218;51.408;7.208;2022-11-03T03:26:30;99589.78;;;20.29;42.74
4410;BME280;2218;51.408;7.208;2022-11-03T03:29:07;99589.78;;;20.29;42.83
4410;BME280;2218;51.408;7.208;2022-11-03T03:31:41;99596.72;;;20.30;43.08
4410;BME280;2218;51.408;7.208;2022-11-03T03:34:11;99590.34;;;20.32;42.89
4410;BME280;2218;51.408;7.208;2022-11-03T03:36:40;99586.75;;;20.33;42.67
4410;BME280;2218;51.408;7.208;2022-11-03T03:39:13;99575.25;;;20.34;42.81
4410;BME280;2218;51.408;7.208;2022-11-03T03:41:41;99583.75;;;20.38;42.76
4410;BME280;2218;51.408;7.208;2022-11-03T03:44:12;99573.13;;;20.39;43.33
4410;BME280;2218;51.408;7.208;2022-11-03T03:46:45;99566.88;;;20.40;42.97
4410;BME280;2218;51.408;7.208;2022-11-03T03:49:15;99578.13;;;20.43;42.80
4410;BME280;2218;51.408;7.208;2022-11-03T03:51:43;99567.50;;;20.44;42.76
4410;BME280;2218;51.408;7.208;2022-11-03T03:54:10;99562.22;;;20.44;42.76
4410;BME280;2218;51.408;7.208;2022-11-03T03:56:42;99568.19;;;20.46;42.89
4410;BME280;2218;51.408;7.208;2022-11-03T03:59:12;99559.44;;;20.46;42.86
4410;BME280;2218;51.408;7.208;2022-11-03T04:01:39;99561.16;;;20.47;42.85
4410;BME280;2218;51.408;7.208;2022-11-03T04:04:06;99555.88;;;20.47;42.79
4410;BME280;2218;51.408;7.208;2022-11-03T04:06:33;99550.59;;;20.47;42.91
4410;BME280;2218;51.408;7.208;2022-11-03T04:09:00;99546.97;;;20.48;42.96
4410;BME280;2218;51.408;7.208;2022-11-03T04:11:27;99541.72;;;20.48;42.80
4410;BME280;2218;51.408;7.208;2022-11-03T04:14:12;99546.97;;;20.48;42.92
4410;BME280;2218;51.408;7.208;2022-11-03T04:16:57;99536.44;;;20.48;42.90
4410;BME280;2218;51.408;7.208;2022-11-03T04:19:41;99530.31;;;20.47;42.83
4410;BME280;2218;51.408;7.208;2022-11-03T04:22:31;99525.88;;;20.48;42.92
4410;BME280;2218;51.408;7.208;2022-11-03T04:24:59;99531.16;;;20.48;42.93
4410;BME280;2218;51.408;7.208;2022-11-03T04:27:30;99525.03;;;20.47;42.91
4410;BME280;2218;51.408;7.208;2022-11-03T04:30:09;99534.75;;;20.47;43.07
4410;BME280;2218;51.408;7.208;2022-11-03T04:32:38;99525.88;;;20.48;43.01
4410;BME280;2218;51.408;7.208;2022-11-03T04:35:14;99526.81;;;20.47;43.03
4410;BME280;2218;51.408;7.208;2022-11-03T04:37:42;99529.47;;;20.47;43.01
4410;BME280;2218;51.408;7.208;2022-11-03T04:40:15;99518.91;;;20.47;43.05
4410;BME280;2218;51.408;7.208;2022-11-03T04:42:43;99518.91;;;20.47;42.94
4410;BME280;2218;51.408;7.208;2022-11-03T04:45:22;99522.47;;;20.46;42.97
4410;BME280;2218;51.408;7.208;2022-11-03T04:47:50;99507.47;;;20.46;43.04
4410;BME280;2218;51.408;7.208;2022-11-03T04:50:21;99518.03;;;20.46;42.89
4410;BME280;2218;51.408;7.208;2022-11-03T04:52:55;99511.94;;;20.46;42.92
4410;BME280;2218;51.408;7.208;2022-11-03T04:55:23;99517.22;;;20.46;43.01
4410;BME280;2218;51.408;7.208;2022-11-03T04:57:56;99511.94;;;20.46;43.16
4410;BME280;2218;51.408;7.208;2022-11-03T05:00:25;99506.66;;;20.46;43.28
4410;BME280;2218;51.408;7.208;2022-11-03T05:02:52;99518.03;;;20.46;43.18
4410;BME280;2218;51.408;7.208;2022-11-03T05:05:21;99512.75;;;20.46;43.34
4410;BME280;2218;51.408;7.208;2022-11-03T05:07:51;99506.66;;;20.46;43.27
4410;BME280;2218;51.408;7.208;2022-11-03T05:10:24;99509.28;;;20.46;43.23
4410;BME280;2218;51.408;7.208;2022-11-03T05:12:53;99508.34;;;20.47;43.28
4410;BME280;2218;51.408;7.208;2022-11-03T05:15:34;99503.06;;;20.47;43.23
4410;BME280;2218;51.408;7.208;2022-11-03T05:18:14;99500.44;;;20.47;42.93
4410;BME280;2218;51.408;7.208;2022-11-03T05:20:49;99508.34;;;20.47;43.23
4410;BME280;2218;51.408;7.208;2022-11-03T05:23:18;99499.47;;;20.48;43.36
4410;BME280;2218;51.408;7.208;2022-11-03T05:25:49;99495.91;;;20.49;43.30
4410;BME280;2218;51.408;7.208;2022-11-03T05:28:25;99496.81;;;20.48;43.23
4410;BME280;2218;51.408;7.208;2022-11-03T05:30:54;99483.53;;;20.49;43.33
4410;BME280;2218;51.408;7.208;2022-11-03T05:33:27;99479.09;;;20.50;43.32
4410;BME280;2218;51.408;7.208;2022-11-03T05:35:55;99470.34;;;20.49;43.27
4410;BME280;2218;51.408;7.208;2022-11-03T05:38:28;99448.38;;;20.49;43.43
4410;BME280;2218;51.408;7.208;2022-11-03T05:40:57;99453.66;;;20.49;43.23
4410;BME280;2218;51.408;7.208;2022-11-03T05:43:27;99455.34;;;20.50;43.08
4410;BME280;2218;51.408;7.208;2022-11-03T05:46:00;99450.88;;;20.50;43.37
4410;BME280;2218;51.408;7.208;2022-11-03T05:48:33;99450.06;;;20.50;43.27
4410;BME280;2218;51.408;7.208;2022-11-03T05:51:18;99443.94;;;20.49;43.38
4410;BME280;2218;51.408;7.208;2022-11-03T05:53:50;99454.38;;;20.51;43.47
4410;BME280;2218;51.408;7.208;2022-11-03T05:56:21;99450.88;;;20.50;43.47
4410;BME280;2218;51.408;7.208;2022-11-03T05:58:51;99442.84;;;20.52;43.43
4410;BME280;2218;51.408;7.208;2022-11-03T06:01:27;99441.16;;;20.51;43.45
4410;BME280;2218;51.408;7.208;2022-11-03T06:03:55;99429.78;;;20.50;43.39
4410;BME280;2218;51.408;7.208;2022-11-03T06:06:29;99436.72;;;20.51;43.37
4410;BME280;2218;51.408;7.208;2022-11-03T06:09:01;99427.97;;;20.51;43.50
4410;BME280;2218;51.408;7.208;2022-11-03T06:11:35;99429.63;;;20.52;43.36
4410;BME280;2218;51.408;7.208;2022-11-03T06:14:13;99431.44;;;20.51;43.46
4410;BME280;2218;51.408;7.208;2022-11-03T06:16:49;99432.28;;;20.52;43.32
4410;BME280;2218;51.408;7.208;2022-11-03T06:19:22;99432.28;;;20.52;43.50
4410;BME280;2218;51.408;7.208;2022-11-03T06:21:54;99421.72;;;20.52;43.46
4410;BME280;2218;51.408;7.208;2022-11-03T06:24:28;99427.00;;;20.52;43.50
4410;BME280;2218;51.408;7.208;2022-11-03T06:26:57;99423.41;;;20.53;43.32
4410;BME280;2218;51.408;7.208;2022-11-03T06:29:24;99416.44;;;20.52;43.52
4410;BME280;2218;51.408;7.208;2022-11-03T06:31:55;99413.78;;;20.52;43.45
4410;BME280;2218;51.408;7.208;2022-11-03T06:34:43;99412.84;;;20.53;43.31
4410;BME280;2218;51.408;7.208;2022-11-03T06:37:20;99407.56;;;20.53;43.55
4410;BME280;2218;51.408;7.208;2022-11-03T06:39:50;99407.56;;;20.53;43.60
4410;BME280;2218;51.408;7.208;2022-11-03T06:42:20;99407.56;;;20.53;43.52
4410;BME280;2218;51.408;7.208;2022-11-03T06:44:49;99398.78;;;20.52;43.61
4410;BME280;2218;51.408;7.208;2022-11-03T06:47:23;99403.09;;;20.53;43.56
4410;BME280;2218;51.408;7.208;2022-11-03T06:49:52;99393.41;;;20.54;43.46
4410;BME280;2218;51.408;7.208;2022-11-03T06:52:28;99392.56;;;20.53;43.47
4410;BME280;2218;51.408;7.208;2022-11-03T06:55:23;99386.34;;;20.54;43.53
4410;BME280;2218;51.408;7.208;2022-11-03T06:57:54;99374.66;;;20.57;43.65
4410;BME280;2218;51.408;7.208;2022-11-03T07:00:26;99378.84;;;20.71;43.56
4410;BME280;2218;51.408;7.208;2022-11-03T07:03:03;99362.66;;;20.75;43.53
4410;BME280;2218;51.408;7.208;2022-11-03T07:05:32;99370.06;;;20.81;43.18
4410;BME280;2218;51.408;7.208;2022-11-03T07:08:03;99360.78;;;20.87;43.32
4410;BME280;2218;51.408;7.208;2022-11-03T07:10:36;99358.63;;;20.92;43.12
4410;BME280;2218;51.408;7.208;2022-11-03T07:13:12;99366.31;;;20.95;43.16
4410;BME280;2218;51.408;7.208;2022-11-03T07:15:42;99373.97;;;20.98;43.28
4410;BME280;2218;51.408;7.208;2022-11-03T07:18:19;99347.16;;;21.03;42.88
4410;BME280;2218;51.408;7.208;2022-11-03T07:20:48;99347.91;;;21.05;42.30
4410;BME280;2218;51.408;7.208;2022-11-03T07:23:19;99341.63;;;21.06;42.85
4410;BME280;2218;51.408;7.208;2022-11-03T07:25:52;99332.59;;;21.08;42.74
4410;BME280;2218;51.408;7.208;2022-11-03T07:28:22;99332.50;;;21.10;42.79
4410;BME280;2218;51.408;7.208;2022-11-03T07:30:50;99327.22;;;21.10;42.68
4410;BME280;2218;51.408;7.208;2022-11-03T07:33:23;99325.28;;;21.12;42.45
4410;BME280;2218;51.408;7.208;2022-11-03T07:35:52;99316.38;;;21.13;42.62
4410;BME280;2218;51.408;7.208;2022-11-03T07:38:24;99309.19;;;21.15;42.66
4410;BME280;2218;51.408;7.208;2022-11-03T07:40:52;99311.81;;;21.15;42.47
4410;BME280;2218;51.408;7.208;2022-11-03T07:43:28;99314.91;;;21.20;42.41
4410;BME280;2218;51.408;7.208;2022-11-03T07:45:58;99316.19;;;21.26;42.34
4410;BME280;2218;51.408;7.208;2022-11-03T07:48:33;99313.41;;;21.27;42.59
4410;BME280;2218;51.408;7.208;2022-11-03T07:51:15;99308.13;;;21.27;42.59
4410;BME280;2218;51.408;7.208;2022-11-03T07:53:46;99291.59;;;21.25;42.42
4410;BME280;2218;51.408;7.208;2022-11-03T07:56:19;99295.66;;;21.29;42.26
4410;BME280;2218;51.408;7.208;2022-11-03T07:58:49;99283.16;;;21.31;42.42
4410;BME280;2218;51.408;7.208;2022-11-03T08:01:25;99279.53;;;21.32;42.52
4410;BME280;2218;51.408;7.208;2022-11-03T08:03:58;99274.25;;;21.32;42.46
4410;BME280;2218;51.408;7.208;2022-11-03T08:06:26;99277.63;;;21.34;42.44
4410;BME280;2218;51.408;7.208;2022-11-03T08:08:53;99276.25;;;21.40;42.44
4410;BME280;2218;51.408;7.208;2022-11-03T08:11:20;99279.59;;;21.42;42.38
4410;BME280;2218;51.408;7.208;2022-11-03T08:13:49;99274.91;;;21.46;42.24
4410;BME280;2218;51.408;7.208;2022-11-03T08:16:16;99273.09;;;21.46;42.28
4410;BME280;2218;51.408;7.208;2022-11-03T08:18:43;99261.69;;;21.46;42.18
4410;BME280;2218;51.408;7.208;2022-11-03T08:21:12;99258.91;;;21.47;42.64
4410;BME280;2218;51.408;7.208;2022-11-03T08:23:39;99262.38;;;21.48;42.39
4410;BME280;2218;51.408;7.208;2022-11-03T08:26:06;99254.34;;;21.49;42.51
4410;BME280;2218;51.408;7.208;2022-11-03T08:28:33;99249.88;;;21.50;42.36
4410;BME280;2218;51.408;7.208;2022-11-03T08:31:01;99248.66;;;21.54;42.52
4410;BME280;2218;51.408;7.208;2022-11-03T08:33:30;99248.50;;;21.55;42.60
4410;BME280;2218;51.408;7.208;2022-11-03T08:35:57;99251.84;;;21.57;42.89
4410;BME280;2218;51.408;7.208;2022-11-03T08:38:26;99241.16;;;21.59;42.71
4410;BME280;2218;51.408;7.208;2022-11-03T08:40:53;99241.84;;;21.61;42.70
4410;BME280;2218;51.408;7.208;2022-11-03T08:43:21;99240.88;;;21.62;42.72
4410;BME280;2218;51.408;7.208;2022-11-03T08:45:48;99234.63;;;21.63;43.15
4410;BME280;2218;51.408;7.208;2022-11-03T08:48:18;99238.81;;;21.65;43.18
4410;BME280;2218;51.408;7.208;2022-11-03T08:50:46;99224.75;;;21.65;42.86
4410;BME280;2218;51.408;7.208;2022-11-03T08:53:13;99220.44;;;21.64;43.17
4410;BME280;2218;51.408;7.208;2022-11-03T08:55:41;99233.66;;;21.64;42.77
4410;BME280;2218;51.408;7.208;2022-11-03T08:58:08;99222.94;;;21.65;42.63
4410;BME280;2218;51.408;7.208;2022-11-03T09:00:35;99235.03;;;21.68;43.17
4410;BME280;2218;51.408;7.208;2022-11-03T09:03:02;99243.56;;;21.72;42.74
4410;BME280;2218;51.408;7.208;2022-11-03T09:05:29;99237.19;;;21.74;42.66
4410;BME280;2218;51.408;7.208;2022-11-03T09:07:56;99232.88;;;21.73;41.85
4410;BME280;2218;51.408;7.208;2022-11-03T09:10:24;99217.94;;;21.72;42.46
4410;BME280;2218;51.408;7.208;2022-11-03T09:12:53;99226.59;;;21.74;42.51
4410;BME280;2218;51.408;7.208;2022-11-03T09:15:20;99214.06;;;21.76;42.72
4410;BME280;2218;51.408;7.208;2022-11-03T09:17:47;99213.09;;;21.77;42.46
4410;BME280;2218;51.408;7.208;2022-11-03T09:20:15;99205.16;;;21.77;42.78
4410;BME280;2218;51.408;7.208;2022-11-03T09:22:42;99206.84;;;21.78;42.40
4410;BME280;2218;51.408;7.208;2022-11-03T09:25:09;99201.56;;;21.78;42.22
4410;BME280;2218;51.408;7.208;2022-11-03T09:27:36;99182.91;;;21.80;41.95
4410;BME280;2218;51.408;7.208;2022-11-03T09:30:06;99172.31;;;21.80;42.06
4410;BME280;2218;51.408;7.208;2022-11-03T09:32:34;99171.50;;;21.79;42.19
4410;BME280;2218;51.408;7.208;2022-11-03T09:35:00;99164.25;;;21.81;42.04
4410;BME280;2218;51.408;7.208;2022-11-03T09:37:27;99149.09;;;21.83;42.09
4410;BME280;2218;51.408;7.208;2022-11-03T09:39:54;99136.69;;;21.84;42.33
4410;BME280;2218;51.408;7.208;2022-11-03T09:42:23;99135.88;;;21.83;42.30
4410;BME280;2218;51.408;7.208;2022-11-03T09:44:51;99130.44;;;21.85;42.41
4410;BME280;2218;51.408;7.208;2022-11-03T09:47:25;99133.06;;;21.85;41.92
4410;BME280;2218;51.408;7.208;2022-11-03T09:49:55;99124.16;;;21.86;42.08
4410;BME280;2218;51.408;7.208;2022-11-03T09:52:23;99120.53;;;21.87;42.29
4410;BME280;2218;51.408;7.208;2022-11-03T09:54:52;99119.69;;;21.86;42.38
4410;BME280;2218;51.408;7.208;2022-11-03T09:57:21;99115.25;;;21.87;41.93
4410;BME280;2218;51.408;7.208;2022-11-03T09:59:50;99095.75;;;21.88;41.98
4410;BME280;2218;51.408;7.208;2022-11-03T10:02:24;99092.28;;;21.87;41.86
4410;BME280;2218;51.408;7.208;2022-11-03T10:04:55;99094.09;;;21.87;42.39
4410;BME280;2218;51.408;7.208;2022-11-03T10:07:25;99096.63;;;21.88;42.28
4410;BME280;2218;51.408;7.208;2022-11-03T10:09:53;99105.38;;;21.89;42.38
4410;BME280;2218;51.408;7.208;2022-11-03T10:12:24;99098.28;;;21.89;41.90
4410;BME280;2218;51.408;7.208;2022-11-03T10:14:53;99082.41;;;21.89;42.33
4410;BME280;2218;51.408;7.208;2022-11-03T10:17:29;99092.00;;;21.90;41.86
4410;BME280;2218;51.408;7.208;2022-11-03T10:19:57;99085.06;;;21.89;42.20
4410;BME280;2218;51.408;7.208;2022-11-03T10:22:24;99073.50;;;21.90;41.75
4410;BME280;2218;51.408;7.208;2022-11-03T10:28:21;99049.53;;;21.92;42.31
4410;BME280;2218;51.408;7.208;2022-11-03T10:30:55;99039.78;;;21.92;42.35
4410;BME280;2218;51.408;7.208;2022-11-03T10:33:29;99039.78;;;21.92;42.52
4410;BME280;2218;51.408;7.208;2022-11-03T10:35:58;99031.72;;;21.94;42.49
4410;BME280;2218;51.408;7.208;2022-11-03T10:38:28;99025.47;;;21.95;42.01
4410;BME280;2218;51.408;7.208;2022-11-03T10:41:09;99023.66;;;21.96;42.39
4410;BME280;2218;51.408;7.208;2022-11-03T10:43:37;99021.81;;;21.96;42.24
4410;BME280;2218;51.408;7.208;2022-11-03T10:46:25;99008.59;;;21.96;42.00
4410;BME280;2218;51.408;7.208;2022-11-03T10:49:04;99004.97;;;21.97;42.20
4410;BME280;2218;51.408;7.208;2022-11-03T10:51:34;99005.97;;;21.96;42.12
4410;BME280;2218;51.408;7.208;2022-11-03T10:54:01;98999.84;;;21.96;41.81
4410;BME280;2218;51.408;7.208;2022-11-03T10:56:30;99003.31;;;21.96;42.28
4410;BME280;2218;51.408;7.208;2022-11-03T10:58:59;98991.91;;;21.96;41.77
4410;BME280;2218;51.408;7.208;2022-11-03T11:01:27;98990.22;;;21.94;42.11
4410;BME280;2218;51.408;7.208;2022-11-03T11:03:54;98998.31;;;21.93;41.72
4410;BME280;2218;51.408;7.208;2022-11-03T11:06:25;98991.22;;;21.93;41.86
4410;BME280;2218;51.408;7.208;2022-11-03T11:09:02;98975.47;;;21.92;41.67
4410;BME280;2218;51.408;7.208;2022-11-03T11:11:30;98964.75;;;21.93;41.62
4410;BME280;2218;51.408;7.208;2022-11-03T11:14:20;98934.28;;;21.89;41.39
4410;BME280;2218;51.408;7.208;2022-11-03T11:16:50;98925.63;;;21.87;41.52
4410;BME280;2218;51.408;7.208;2022-11-03T11:19:19;98931.63;;;21.89;41.46
4410;BME280;2218;51.408;7.208;2022-11-03T11:22:12;98946.78;;;21.87;40.85
4410;BME280;2218;51.408;7.208;2022-11-03T11:25:06;98937.91;;;21.30;40.59
4410;BME280;2218;51.408;7.208;2022-11-03T11:27:55;98923.81;;;20.51;41.31
4410;BME280;2218;51.408;7.208;2022-11-03T11:33:44;98905.22;;;20.62;41.47
4410;BME280;2218;51.408;7.208;2022-11-03T11:36:23;98892.13;;;21.20;41.01
4410;BME280;2218;51.408;7.208;2022-11-03T11:38:56;98882.56;;;21.38;40.61
4410;BME280;2218;51.408;7.208;2022-11-03T11:42:08;98887.69;;;21.50;40.04
4410;BME280;2218;51.408;7.208;2022-11-03T11:44:59;98885.63;;;21.53;40.13
4410;BME280;2218;51.408;7.208;2022-11-03T11:47:49;98891.72;;;21.54;40.19
4410;BME280;2218;51.408;7.208;2022-11-03T11:50:22;98888.09;;;21.55;39.81
4410;BME280;2218;51.408;7.208;2022-11-03T11:52:55;98891.44;;;21.57;39.80
4410;BME280;2218;51.408;7.208;2022-11-03T11:55:31;98885.31;;;21.56;40.11
4410;BME280;2218;51.408;7.208;2022-11-03T11:58:04;98873.91;;;21.56;39.71
4410;BME280;2218;51.408;7.208;2022-11-03T12:00:33;98865.72;;;21.59;39.88
4410;BME280;2218;51.408;7.208;2022-11-03T12:03:04;98864.88;;;21.58;39.63
4410;BME280;2218;51.408;7.208;2022-11-03T12:05:33;98876.28;;;21.59;39.98
4410;BME280;2218;51.408;7.208;2022-11-03T12:08:01;98878.09;;;21.58;39.52
4410;BME280;2218;51.408;7.208;2022-11-03T12:10:30;98878.09;;;21.58;39.82
4410;BME280;2218;51.408;7.208;2022-11-03T12:12:58;98852.50;;;21.59;40.14
4410;BME280;2218;51.408;7.208;2022-11-03T12:15:49;98846.38;;;21.58;39.82
4410;BME280;2218;51.408;7.208;2022-11-03T12:18:32;98842.03;;;21.57;39.80
4410;BME280;2218;51.408;7.208;2022-11-03T12:21:00;98841.09;;;21.58;39.99
4410;BME280;2218;51.408;7.208;2022-11-03T12:23:39;98829.63;;;21.58;39.68
4410;BME280;2218;51.408;7.208;2022-11-03T12:26:40;98805.84;;;21.58;39.63
4410;BME280;2218;51.408;7.208;2022-11-03T12:29:07;98809.34;;;21.58;39.77
4410;BME280;2218;51.408;7.208;2022-11-03T12:31:34;98805.56;;;21.61;39.65
4410;BME280;2218;51.408;7.208;2022-11-03T12:34:02;98800.97;;;21.63;40.04
4410;BME280;2218;51.408;7.208;2022-11-03T12:36:29;98793.75;;;21.65;39.71
4410;BME280;2218;51.408;7.208;2022-11-03T12:38:56;98782.19;;;21.66;39.65
4410;BME280;2218;51.408;7.208;2022-11-03T12:41:24;98786.63;;;21.65;40.05
4410;BME280;2218;51.408;7.208;2022-11-03T12:43:52;98783.84;;;21.67;40.25
4410;BME280;2218;51.408;7.208;2022-11-03T12:46:21;98775.91;;;21.67;39.97
4410;BME280;2218;51.408;7.208;2022-11-03T12:48:48;98758.22;;;21.67;40.05
4410;BME280;2218;51.408;7.208;2022-11-03T12:51:18;98756.41;;;21.68;40.32
4410;BME280;2218;51.408;7.208;2022-11-03T12:53:46;98754.63;;;21.68;39.85
4410;BME280;2218;51.408;7.208;2022-11-03T12:56:15;98757.13;;;21.70;40.37
4410;BME280;2218;51.408;7.208;2022-11-03T12:58:44;98744.88;;;21.69;40.10
4410;BME280;2218;51.408;7.208;2022-11-03T13:01:11;98737.78;;;21.70;40.18
4410;BME280;2218;51.408;7.208;2022-11-03T13:03:38;98724.69;;;21.68;40.24
4410;BME280;2218;51.408;7.208;2022-11-03T13:06:05;98720.25;;;21.68;40.38
4410;BME280;2218;51.408;7.208;2022-11-03T13:08:35;98715.81;;;21.69;40.54
4410;BME280;2218;51.408;7.208;2022-11-03T13:11:02;98712.16;;;21.70;40.45
4410;BME280;2218;51.408;7.208;2022-11-03T13:13:51;98714.97;;;21.68;40.94
4410;BME280;2218;51.408;7.208;2022-11-03T13:16:19;98699.09;;;21.68;40.46
4410;BME280;2218;51.408;7.208;2022-11-03T13:18:46;98692.94;;;21.68;40.47
4410;BME280;2218;51.408;7.208;2022-11-03T13:21:14;98682.38;;;21.68;40.66
4410;BME280;2218;51.408;7.208;2022-11-03T13:23:41;98673.50;;;21.69;41.08
4410;BME280;2218;51.408;7.208;2022-11-03T13:26:08;98675.44;;;21.67;41.17
4410;BME280;2218;51.408;7.208;2022-11-03T13:28:35;98654.28;;;21.67;41.25
4410;BME280;2218;51.408;7.208;2022-11-03T13:31:03;98646.34;;;21.67;40.75
4410;BME280;2218;51.408;7.208;2022-11-03T13:33:30;98654.16;;;21.68;40.92
4410;BME280;2218;51.408;7.208;2022-11-03T13:35:57;98640.94;;;21.68;40.90
4410;BME280;2218;51.408;7.208;2022-11-03T13:38:24;98642.72;;;21.68;41.35
4410;BME280;2218;51.408;7.208;2022-11-03T13:40:51;98639.94;;;21.70;41.48
4410;BME280;2218;51.408;7.208;2022-11-03T13:43:18;98632.00;;;21.70;41.50
4410;BME280;2218;51.408;7.208;2022-11-03T13:45:45;98615.31;;;21.69;41.43
4410;BME280;2218;51.408;7.208;2022-11-03T13:48:14;98618.91;;;21.68;41.57
4410;BME280;2218;51.408;7.208;2022-11-03T13:50:43;98624.22;;;21.68;41.32
4410;BME280;2218;51.408;7.208;2022-11-03T13:53:10;98615.31;;;21.69;41.32